createdAt,value
2019-02-09T00:00:22.570Z,81.42
2019-02-09T00:01:02.796Z,81.46
2019-02-09T00:01:39.120Z,81.53
2019-02-09T00:02:15.411Z,81.60
2019-02-09T00:02:51.651Z,81.63
2019-02-09T00:03:27.813Z,81.70
2019-02-09T00:04:03.992Z,81.72
2019-02-09T00:04:40.147Z,81.81
2019-02-09T00:05:16.754Z,81.83
2019-02-09T00:05:52.972Z,81.90
2019-02-09T00:06:29.271Z,81.92
2019-02-09T00:07:05.387Z,81.98
2019-02-09T00:07:41.495Z,82.01
2019-02-09T00:08:17.658Z,82.02
2019-02-09T00:08:53.951Z,82.01
2019-02-09T00:09:29.986Z,82.00
2019-02-09T00:10:06.906Z,81.99
2019-02-09T00:10:43.034Z,81.94
2019-02-09T00:11:19.271Z,81.86
2019-02-09T00:11:55.325Z,81.82
2019-02-09T00:12:31.415Z,81.72
2019-02-09T00:13:07.658Z,81.67
2019-02-09T00:13:43.751Z,81.60
2019-02-09T00:14:19.885Z,81.53
2019-02-09T00:14:56.050Z,81.45
2019-02-09T00:15:32.591Z,81.38
2019-02-09T00:16:09.159Z,81.33
2019-02-09T00:16:45.420Z,81.24
2019-02-09T00:17:21.511Z,81.18
2019-02-09T00:17:57.720Z,81.11
2019-02-09T00:18:34.033Z,81.04
2019-02-09T00:19:10.191Z,80.98
2019-02-09T00:19:46.293Z,80.89
2019-02-09T00:20:22.654Z,80.82
2019-02-09T00:20:58.945Z,80.82
2019-02-09T00:21:35.061Z,80.64
2019-02-09T00:22:11.329Z,80.52
2019-02-09T00:22:47.433Z,80.46
2019-02-09T00:23:23.602Z,80.42
2019-02-09T00:23:59.702Z,80.35
2019-02-09T00:24:36.027Z,80.56
2019-02-09T00:25:15.302Z,80.56
2019-02-09T00:25:51.411Z,80.19
2019-02-09T00:26:27.701Z,80.12
2019-02-09T00:27:03.847Z,80.06
2019-02-09T00:27:39.963Z,80.00
2019-02-09T00:28:16.143Z,79.93
2019-02-09T00:28:52.351Z,79.86
2019-02-09T00:29:28.555Z,79.81
2019-02-09T00:30:04.873Z,79.85
2019-02-09T00:30:41.044Z,79.85
2019-02-09T00:31:17.400Z,79.59
2019-02-09T00:31:53.754Z,79.52
2019-02-09T00:32:29.943Z,79.50
2019-02-09T00:33:06.284Z,79.50
2019-02-09T00:33:42.614Z,79.33
2019-02-09T00:34:18.895Z,79.25
2019-02-09T00:34:55.158Z,79.18
2019-02-09T00:35:31.493Z,79.37
2019-02-09T00:36:07.845Z,78.43
2019-02-09T00:36:43.938Z,78.43
2019-02-09T00:37:19.997Z,78.75
2019-02-09T00:37:56.245Z,78.75
2019-02-09T00:38:32.359Z,78.75
2019-02-09T00:39:09.839Z,78.44
2019-02-09T00:39:46.020Z,78.34
2019-02-09T00:40:22.294Z,77.83
2019-02-09T00:40:58.486Z,77.68
2019-02-09T00:41:34.898Z,77.68
2019-02-09T00:42:11.201Z,77.62
2019-02-09T00:42:48.494Z,76.87
2019-02-09T00:43:24.653Z,76.87
2019-02-09T00:44:00.901Z,76.71
2019-02-09T00:44:37.195Z,76.71
2019-02-09T00:45:13.775Z,76.92
2019-02-09T00:45:50.224Z,76.92
2019-02-09T00:46:26.434Z,76.06
2019-02-09T00:47:02.744Z,75.71
2019-02-09T00:47:38.920Z,75.43
2019-02-09T00:48:15.166Z,75.08
2019-02-09T00:48:51.473Z,75.02
2019-02-09T00:49:27.867Z,75.02
2019-02-09T00:50:04.259Z,74.42
2019-02-09T00:50:40.432Z,74.35
2019-02-09T00:51:16.612Z,73.81
2019-02-09T00:51:52.804Z,73.81
2019-02-09T00:52:29.046Z,73.87
2019-02-09T00:53:05.312Z,73.83
2019-02-09T00:53:41.620Z,73.31
2019-02-09T00:54:17.944Z,73.31
2019-02-09T00:54:54.089Z,73.11
2019-02-09T00:55:30.470Z,73.11
2019-02-09T00:56:07.077Z,73.20
2019-02-09T00:56:43.184Z,72.12
2019-02-09T00:57:19.429Z,72.63
2019-02-09T00:57:55.734Z,72.63
2019-02-09T00:58:32.204Z,72.54
2019-02-09T00:59:08.269Z,71.76
2019-02-09T00:59:44.522Z,71.76
2019-02-09T01:00:22.819Z,72.11
2019-02-09T01:00:59.056Z,72.05
2019-02-09T01:01:35.116Z,72.00
2019-02-09T01:02:11.393Z,71.92
2019-02-09T01:02:47.693Z,71.35
2019-02-09T01:03:23.972Z,71.50
2019-02-09T01:04:00.123Z,71.50
2019-02-09T01:04:36.250Z,71.67
2019-02-09T01:05:12.677Z,70.42
2019-02-09T01:05:49.094Z,70.42
2019-02-09T01:06:25.355Z,70.70
2019-02-09T01:07:01.501Z,70.68
2019-02-09T01:07:37.756Z,70.60
2019-02-09T01:08:14.107Z,70.46
2019-02-09T01:08:50.194Z,70.28
2019-02-09T01:09:26.503Z,70.30
2019-02-09T01:10:02.591Z,70.30
2019-02-09T01:10:38.936Z,70.12
2019-02-09T01:11:15.105Z,69.87
2019-02-09T01:11:51.295Z,69.87
2019-02-09T01:12:27.369Z,69.87
2019-02-09T01:13:03.515Z,69.73
2019-02-09T01:13:39.781Z,69.64
2019-02-09T01:14:15.808Z,69.66
2019-02-09T01:14:52.079Z,69.65
2019-02-09T01:15:28.326Z,69.61
2019-02-09T01:16:04.501Z,69.49
2019-02-09T01:16:40.906Z,69.37
2019-02-09T01:17:17.282Z,69.27
2019-02-09T01:17:53.461Z,69.25
2019-02-09T01:18:29.551Z,69.07
2019-02-09T01:19:05.865Z,69.00
2019-02-09T01:19:41.971Z,68.85
2019-02-09T01:20:22.987Z,68.66
2019-02-09T01:20:59.213Z,68.55
2019-02-09T01:21:35.334Z,68.46
2019-02-09T01:22:11.559Z,68.39
2019-02-09T01:22:48.078Z,68.38
2019-02-09T01:23:24.315Z,68.25
2019-02-09T01:24:00.528Z,68.07
2019-02-09T01:24:36.726Z,67.88
2019-02-09T01:25:13.293Z,67.77
2019-02-09T01:25:49.585Z,67.50
2019-02-09T01:26:25.656Z,67.28
2019-02-09T01:27:01.983Z,66.97
2019-02-09T01:27:38.110Z,66.72
2019-02-09T01:28:14.188Z,66.27
2019-02-09T01:28:50.365Z,65.98
2019-02-09T01:29:26.522Z,65.70
2019-02-09T01:30:03.032Z,65.61
2019-02-09T01:30:39.370Z,65.52
2019-02-09T01:31:15.682Z,65.30
2019-02-09T01:31:51.885Z,65.15
2019-02-09T01:32:28.246Z,65.01
2019-02-09T01:33:04.391Z,64.94
2019-02-09T01:33:40.591Z,64.78
2019-02-09T01:34:16.836Z,64.70
2019-02-09T01:34:53.003Z,64.50
2019-02-09T01:35:29.319Z,64.49
2019-02-09T01:36:05.445Z,64.45
2019-02-09T01:36:41.757Z,64.36
2019-02-09T01:37:17.967Z,64.29
2019-02-09T01:37:54.460Z,64.26
2019-02-09T01:38:30.409Z,64.19
2019-02-09T01:39:08.659Z,63.95
2019-02-09T01:39:44.788Z,63.66
2019-02-09T01:40:24.243Z,63.57
2019-02-09T01:41:00.313Z,63.47
2019-02-09T01:41:36.363Z,63.29
2019-02-09T01:42:12.473Z,63.03
2019-02-09T01:42:48.666Z,62.95
2019-02-09T01:43:24.873Z,62.89
2019-02-09T01:44:01.135Z,62.80
2019-02-09T01:44:37.917Z,62.76
2019-02-09T01:45:17.299Z,62.75
2019-02-09T01:45:53.517Z,62.71
2019-02-09T01:46:29.809Z,62.63
2019-02-09T01:47:06.109Z,62.58
2019-02-09T01:47:42.290Z,62.54
2019-02-09T01:48:18.606Z,62.46
2019-02-09T01:48:54.709Z,62.24
2019-02-09T01:49:30.796Z,62.11
2019-02-09T01:50:09.003Z,61.97
2019-02-09T01:50:45.253Z,61.83
2019-02-09T01:51:21.488Z,61.67
2019-02-09T01:51:57.696Z,61.53
2019-02-09T01:52:33.777Z,61.42
2019-02-09T01:53:09.997Z,61.38
2019-02-09T01:53:46.189Z,61.35
2019-02-09T01:54:22.319Z,61.21
2019-02-09T01:54:58.463Z,61.41
2019-02-09T01:55:34.501Z,61.37
2019-02-09T01:56:10.763Z,61.26
2019-02-09T01:56:46.920Z,60.96
2019-02-09T01:57:22.996Z,60.86
2019-02-09T01:57:59.325Z,60.80
2019-02-09T01:58:35.570Z,60.71
2019-02-09T01:59:11.872Z,60.67
2019-02-09T01:59:48.114Z,60.70
2019-02-09T02:00:26.079Z,60.73
2019-02-09T02:01:02.213Z,60.72
2019-02-09T02:01:38.318Z,60.86
2019-02-09T02:02:14.743Z,60.82
2019-02-09T02:02:51.201Z,60.60
2019-02-09T02:03:27.596Z,60.29
2019-02-09T02:04:03.713Z,60.18
2019-02-09T02:04:39.883Z,60.06
2019-02-09T02:05:16.821Z,60.01
2019-02-09T02:05:52.903Z,59.92
2019-02-09T02:06:28.964Z,59.86
2019-02-09T02:07:05.065Z,59.90
2019-02-09T02:07:41.232Z,59.81
2019-02-09T02:08:21.063Z,59.90
2019-02-09T02:08:57.248Z,59.85
2019-02-09T02:09:33.380Z,60.01
2019-02-09T02:10:12.249Z,59.96
2019-02-09T02:10:48.600Z,59.86
2019-02-09T02:11:24.771Z,59.76
2019-02-09T02:12:00.852Z,59.53
2019-02-09T02:12:36.982Z,59.20
2019-02-09T02:13:13.464Z,59.11
2019-02-09T02:13:49.496Z,59.04
2019-02-09T02:14:25.486Z,59.00
2019-02-09T02:15:01.555Z,58.86
2019-02-09T02:15:37.882Z,58.50
2019-02-09T02:16:14.057Z,58.16
2019-02-09T02:16:50.590Z,57.90
2019-02-09T02:17:26.850Z,57.92
2019-02-09T02:18:03.194Z,57.92
2019-02-09T02:18:39.302Z,57.88
2019-02-09T02:19:15.534Z,57.70
2019-02-09T02:19:51.783Z,57.67
2019-02-09T02:20:28.748Z,57.61
2019-02-09T02:21:05.010Z,57.74
2019-02-09T02:21:41.286Z,58.04
2019-02-09T02:22:17.428Z,57.90
2019-02-09T02:22:53.539Z,57.79
2019-02-09T02:23:29.555Z,57.34
2019-02-09T02:24:05.731Z,57.18
2019-02-09T02:24:41.836Z,57.13
2019-02-09T02:25:18.328Z,57.10
2019-02-09T02:25:54.526Z,57.18
2019-02-09T02:26:30.797Z,57.36
2019-02-09T02:27:06.990Z,57.34
2019-02-09T02:27:43.082Z,57.50
2019-02-09T02:28:19.368Z,57.35
2019-02-09T02:28:55.446Z,56.95
2019-02-09T02:29:31.712Z,56.98
2019-02-09T02:30:09.037Z,57.11
2019-02-09T02:30:45.260Z,57.09
2019-02-09T02:31:21.255Z,56.95
2019-02-09T02:31:57.477Z,56.89
2019-02-09T02:32:34.791Z,57.01
2019-02-09T02:33:11.416Z,57.14
2019-02-09T02:33:47.465Z,57.13
2019-02-09T02:34:23.731Z,57.10
2019-02-09T02:34:59.995Z,56.96
2019-02-09T02:35:36.259Z,56.92
2019-02-09T02:36:12.507Z,56.93
2019-02-09T02:36:48.608Z,56.81
2019-02-09T02:37:24.880Z,56.69
2019-02-09T02:38:00.908Z,56.36
2019-02-09T02:38:37.077Z,56.32
2019-02-09T02:39:13.583Z,56.33
2019-02-09T02:39:49.780Z,56.37
2019-02-09T02:40:26.225Z,56.41
2019-02-09T02:41:02.322Z,56.56
2019-02-09T02:41:38.411Z,56.73
2019-02-09T02:42:14.502Z,56.42
2019-02-09T02:42:50.750Z,56.24
2019-02-09T02:43:27.108Z,56.23
2019-02-09T02:44:03.239Z,56.15
2019-02-09T02:44:39.402Z,56.10
2019-02-09T02:45:16.225Z,56.08
2019-02-09T02:45:52.350Z,56.21
2019-02-09T02:46:28.534Z,56.07
2019-02-09T02:47:04.716Z,55.98
2019-02-09T02:47:40.963Z,55.96
2019-02-09T02:48:16.929Z,55.97
2019-02-09T02:48:53.116Z,55.94
2019-02-09T02:49:29.187Z,55.93
2019-02-09T02:50:05.496Z,55.82
2019-02-09T02:50:41.742Z,55.80
2019-02-09T02:51:17.865Z,55.82
2019-02-09T02:51:54.001Z,55.85
2019-02-09T02:52:30.302Z,55.98
2019-02-09T02:53:06.635Z,55.88
2019-02-09T02:53:42.843Z,55.71
2019-02-09T02:54:19.054Z,55.68
2019-02-09T02:54:55.272Z,55.63
2019-02-09T02:55:31.479Z,55.76
2019-02-09T02:56:07.775Z,55.87
2019-02-09T02:56:44.031Z,55.91
2019-02-09T02:57:20.181Z,55.89
2019-02-09T02:57:56.562Z,55.78
2019-02-09T02:58:32.829Z,55.63
2019-02-09T02:59:08.897Z,55.40
2019-02-09T02:59:45.191Z,55.24
2019-02-09T03:00:31.625Z,55.21
2019-02-09T03:01:01.015Z,54.91
2019-02-09T03:01:37.096Z,54.52
2019-02-09T03:02:13.203Z,54.45
2019-02-09T03:02:49.460Z,54.10
2019-02-09T03:03:25.765Z,53.92
2019-02-09T03:04:01.817Z,53.75
2019-02-09T03:04:37.856Z,53.80
2019-02-09T03:05:16.017Z,53.83
2019-02-09T03:05:52.117Z,53.86
2019-02-09T03:06:28.450Z,53.86
2019-02-09T03:07:04.744Z,53.85
2019-02-09T03:07:41.034Z,53.71
2019-02-09T03:08:17.214Z,53.68
2019-02-09T03:08:53.216Z,53.68
2019-02-09T03:09:29.352Z,53.72
2019-02-09T03:10:05.975Z,53.67
2019-02-09T03:10:42.185Z,53.69
2019-02-09T03:11:18.552Z,53.76
2019-02-09T03:11:54.850Z,53.82
2019-02-09T03:12:31.029Z,53.87
2019-02-09T03:13:07.086Z,54.01
2019-02-09T03:13:43.335Z,53.93
2019-02-09T03:14:19.435Z,53.84
2019-02-09T03:14:55.626Z,53.67
2019-02-09T03:15:32.450Z,53.71
2019-02-09T03:16:08.688Z,53.74
2019-02-09T03:16:44.806Z,53.61
2019-02-09T03:17:21.292Z,53.50
2019-02-09T03:17:57.455Z,52.97
2019-02-09T03:18:33.488Z,52.67
2019-02-09T03:19:09.625Z,52.39
2019-02-09T03:19:45.757Z,52.32
2019-02-09T03:20:22.127Z,52.12
2019-02-09T03:20:58.204Z,52.00
2019-02-09T03:21:34.507Z,51.77
2019-02-09T03:22:10.630Z,51.87
2019-02-09T03:22:46.935Z,51.79
2019-02-09T03:23:23.092Z,51.70
2019-02-09T03:23:59.222Z,51.59
2019-02-09T03:24:35.326Z,51.49
2019-02-09T03:25:13.886Z,51.28
2019-02-09T03:25:50.028Z,51.06
2019-02-09T03:26:26.347Z,50.96
2019-02-09T03:27:02.451Z,51.06
2019-02-09T03:27:38.618Z,51.25
2019-02-09T03:28:14.722Z,51.30
2019-02-09T03:28:51.054Z,51.16
2019-02-09T03:29:27.273Z,51.00
2019-02-09T03:30:03.551Z,50.89
2019-02-09T03:30:47.629Z,50.88
2019-02-09T03:31:17.789Z,50.79
2019-02-09T03:31:54.077Z,51.03
2019-02-09T03:32:30.199Z,51.06
2019-02-09T03:33:06.400Z,51.08
2019-02-09T03:33:42.728Z,51.32
2019-02-09T03:34:18.866Z,51.19
2019-02-09T03:34:55.048Z,51.21
2019-02-09T03:35:31.199Z,51.32
2019-02-09T03:36:07.221Z,51.24
2019-02-09T03:36:43.436Z,51.05
2019-02-09T03:37:19.695Z,50.86
2019-02-09T03:37:56.016Z,50.73
2019-02-09T03:38:32.274Z,50.73
2019-02-09T03:39:09.905Z,50.61
2019-02-09T03:39:46.221Z,50.60
2019-02-09T03:40:23.373Z,50.56
2019-02-09T03:40:59.533Z,50.37
2019-02-09T03:41:35.793Z,50.15
2019-02-09T03:42:12.083Z,49.93
2019-02-09T03:42:48.467Z,49.74
2019-02-09T03:43:24.533Z,49.49
2019-02-09T03:44:00.824Z,49.14
2019-02-09T03:44:37.095Z,49.22
2019-02-09T03:45:19.481Z,49.17
2019-02-09T03:45:55.698Z,49.23
2019-02-09T03:46:31.811Z,49.35
2019-02-09T03:47:08.006Z,49.48
2019-02-09T03:47:44.326Z,49.80
2019-02-09T03:48:20.585Z,50.20
2019-02-09T03:48:56.906Z,50.14
2019-02-09T03:49:33.042Z,50.19
2019-02-09T03:50:10.313Z,50.11
2019-02-09T03:50:46.513Z,49.67
2019-02-09T03:51:22.743Z,49.55
2019-02-09T03:51:58.707Z,49.33
2019-02-09T03:52:34.897Z,49.30
2019-02-09T03:53:11.171Z,49.36
2019-02-09T03:53:47.453Z,49.49
2019-02-09T03:54:23.723Z,49.77
2019-02-09T03:54:59.836Z,49.98
2019-02-09T03:55:36.039Z,50.39
2019-02-09T03:56:12.286Z,50.40
2019-02-09T03:56:48.441Z,50.36
2019-02-09T03:57:24.502Z,50.25
2019-02-09T03:58:00.559Z,50.13
2019-02-09T03:58:36.773Z,49.87
2019-02-09T03:59:12.893Z,50.06
2019-02-09T03:59:49.189Z,50.15
2019-02-09T04:00:26.882Z,50.11
2019-02-09T04:01:03.322Z,49.98
2019-02-09T04:01:39.600Z,49.79
2019-02-09T04:02:15.857Z,49.61
2019-02-09T04:02:52.121Z,49.33
2019-02-09T04:03:28.386Z,49.13
2019-02-09T04:04:04.464Z,49.02
2019-02-09T04:04:40.650Z,49.05
2019-02-09T04:05:16.873Z,49.23
2019-02-09T04:05:52.974Z,49.29
2019-02-09T04:06:29.157Z,49.25
2019-02-09T04:07:05.394Z,49.00
2019-02-09T04:07:41.577Z,48.62
2019-02-09T04:08:17.857Z,48.34
2019-02-09T04:08:53.977Z,48.21
2019-02-09T04:09:30.355Z,48.08
2019-02-09T04:10:08.184Z,48.11
2019-02-09T04:10:44.424Z,48.24
2019-02-09T04:11:20.535Z,48.43
2019-02-09T04:11:56.572Z,48.32
2019-02-09T04:12:32.686Z,48.23
2019-02-09T04:13:08.900Z,48.03
2019-02-09T04:13:45.120Z,47.94
2019-02-09T04:14:21.423Z,47.79
2019-02-09T04:14:57.693Z,47.58
2019-02-09T04:15:33.835Z,47.51
2019-02-09T04:16:09.938Z,47.56
2019-02-09T04:16:46.281Z,47.64
2019-02-09T04:17:22.381Z,47.66
2019-02-09T04:17:58.933Z,47.54
2019-02-09T04:18:35.220Z,47.47
2019-02-09T04:19:11.322Z,47.45
2019-02-09T04:19:47.582Z,47.48
2019-02-09T04:20:24.257Z,47.46
2019-02-09T04:21:00.431Z,47.43
2019-02-09T04:21:36.533Z,47.36
2019-02-09T04:22:12.681Z,47.38
2019-02-09T04:22:48.810Z,47.38
2019-02-09T04:23:24.922Z,47.32
2019-02-09T04:24:01.116Z,47.24
2019-02-09T04:24:37.182Z,47.09
2019-02-09T04:25:14.559Z,46.79
2019-02-09T04:25:50.662Z,46.62
2019-02-09T04:26:26.838Z,46.57
2019-02-09T04:27:02.962Z,46.70
2019-02-09T04:27:39.085Z,46.43
2019-02-09T04:28:15.193Z,46.30
2019-02-09T04:28:51.436Z,46.26
2019-02-09T04:29:27.597Z,46.25
2019-02-09T04:30:03.840Z,46.33
2019-02-09T04:30:39.953Z,46.50
2019-02-09T04:31:16.182Z,46.59
2019-02-09T04:31:52.322Z,46.83
2019-02-09T04:32:28.658Z,46.75
2019-02-09T04:33:04.734Z,46.77
2019-02-09T04:33:40.853Z,46.31
2019-02-09T04:34:16.973Z,46.14
2019-02-09T04:34:53.163Z,46.06
2019-02-09T04:35:29.299Z,45.96
2019-02-09T04:36:05.427Z,45.98
2019-02-09T04:36:41.457Z,46.00
2019-02-09T04:37:17.675Z,45.86
2019-02-09T04:37:53.884Z,45.79
2019-02-09T04:38:30.171Z,45.78
2019-02-09T04:39:08.292Z,45.71
2019-02-09T04:39:44.333Z,45.52
2019-02-09T04:40:24.909Z,45.39
2019-02-09T04:41:01.199Z,45.44
2019-02-09T04:41:37.433Z,45.49
2019-02-09T04:42:13.667Z,45.44
2019-02-09T04:42:49.798Z,45.34
2019-02-09T04:43:26.141Z,45.32
2019-02-09T04:44:02.483Z,45.26
2019-02-09T04:44:38.626Z,45.11
2019-02-09T04:45:15.279Z,44.89
2019-02-09T04:45:51.364Z,44.81
2019-02-09T04:46:27.439Z,44.77
2019-02-09T04:47:03.564Z,44.78
2019-02-09T04:47:39.711Z,44.83
2019-02-09T04:48:15.845Z,44.73
2019-02-09T04:48:51.842Z,44.42
2019-02-09T04:49:28.016Z,44.53
2019-02-09T04:50:04.167Z,45.16
2019-02-09T04:50:40.421Z,45.48
2019-02-09T04:51:16.826Z,45.81
2019-02-09T04:51:53.138Z,45.94
2019-02-09T04:52:29.265Z,45.94
2019-02-09T04:53:05.397Z,46.11
2019-02-09T04:53:41.473Z,46.34
2019-02-09T04:54:17.493Z,46.50
2019-02-09T04:54:53.573Z,46.48
2019-02-09T04:55:29.813Z,46.56
2019-02-09T04:56:06.134Z,46.22
2019-02-09T04:56:42.423Z,45.99
2019-02-09T04:57:18.651Z,46.05
2019-02-09T04:57:54.813Z,46.24
2019-02-09T04:58:30.947Z,46.10
2019-02-09T04:59:07.249Z,45.68
2019-02-09T04:59:43.463Z,45.38
2019-02-09T05:00:27.305Z,45.28
2019-02-09T05:01:03.729Z,45.63
2019-02-09T05:01:40.069Z,45.55
2019-02-09T05:02:16.161Z,45.15
2019-02-09T05:02:52.464Z,45.05
2019-02-09T05:03:28.797Z,45.00
2019-02-09T05:04:04.984Z,45.15
2019-02-09T05:04:41.079Z,44.64
2019-02-09T05:05:17.271Z,44.63
2019-02-09T05:05:53.353Z,44.39
2019-02-09T05:06:29.464Z,43.96
2019-02-09T05:07:05.749Z,43.83
2019-02-09T05:07:41.867Z,44.11
2019-02-09T05:08:18.060Z,44.56
2019-02-09T05:08:54.308Z,44.33
2019-02-09T05:09:30.561Z,44.91
2019-02-09T05:10:07.163Z,45.08
2019-02-09T05:10:43.323Z,45.29
2019-02-09T05:11:19.496Z,45.44
2019-02-09T05:11:55.683Z,45.58
2019-02-09T05:12:31.725Z,45.72
2019-02-09T05:13:07.830Z,45.64
2019-02-09T05:13:44.095Z,45.59
2019-02-09T05:14:20.330Z,45.61
2019-02-09T05:14:56.512Z,46.31
2019-02-09T05:15:32.697Z,46.69
2019-02-09T05:16:09.014Z,46.83
2019-02-09T05:16:45.326Z,46.91
2019-02-09T05:17:21.567Z,46.97
2019-02-09T05:17:57.818Z,46.93
2019-02-09T05:18:34.098Z,46.96
2019-02-09T05:19:10.397Z,47.21
2019-02-09T05:19:46.634Z,47.39
2019-02-09T05:20:24.966Z,47.61
2019-02-09T05:21:01.485Z,47.92
2019-02-09T05:21:37.706Z,48.55
2019-02-09T05:22:13.932Z,48.38
2019-02-09T05:22:50.316Z,47.57
2019-02-09T05:23:26.291Z,47.21
2019-02-09T05:24:02.358Z,46.97
2019-02-09T05:24:38.672Z,46.52
2019-02-09T05:25:15.260Z,46.41
2019-02-09T05:25:51.391Z,46.15
2019-02-09T05:26:27.562Z,45.81
2019-02-09T05:27:03.707Z,45.64
2019-02-09T05:27:39.968Z,45.59
2019-02-09T05:28:16.274Z,45.69
2019-02-09T05:28:52.313Z,45.67
2019-02-09T05:29:28.473Z,45.86
2019-02-09T05:30:04.728Z,46.64
2019-02-09T05:30:40.903Z,47.31
2019-02-09T05:31:22.908Z,47.59
2019-02-09T05:31:56.391Z,47.62
2019-02-09T05:32:32.655Z,47.64
2019-02-09T05:33:08.874Z,48.44
2019-02-09T05:33:45.142Z,48.28
2019-02-09T05:34:21.441Z,48.14
2019-02-09T05:34:57.814Z,48.10
2019-02-09T05:35:33.886Z,47.73
2019-02-09T05:36:09.995Z,47.72
2019-02-09T05:36:46.343Z,47.28
2019-02-09T05:37:22.494Z,46.98
2019-02-09T05:37:58.672Z,47.26
2019-02-09T05:38:34.900Z,47.34
2019-02-09T05:39:11.472Z,48.00
2019-02-09T05:39:47.704Z,47.65
2019-02-09T05:40:24.458Z,47.05
2019-02-09T05:41:00.740Z,47.02
2019-02-09T05:41:36.957Z,47.66
2019-02-09T05:42:13.125Z,48.12
2019-02-09T05:42:49.311Z,48.54
2019-02-09T05:43:25.604Z,48.62
2019-02-09T05:44:01.669Z,48.72
2019-02-09T05:44:37.790Z,48.89
2019-02-09T05:45:16.851Z,48.96
2019-02-09T05:45:52.991Z,49.09
2019-02-09T05:46:29.262Z,48.80
2019-02-09T05:47:05.522Z,48.81
2019-02-09T05:47:41.824Z,48.75
2019-02-09T05:48:17.989Z,48.91
2019-02-09T05:48:54.258Z,49.26
2019-02-09T05:49:30.658Z,49.40
2019-02-09T05:50:09.880Z,49.78
2019-02-09T05:50:46.025Z,49.81
2019-02-09T05:51:22.206Z,49.85
2019-02-09T05:51:58.534Z,50.17
2019-02-09T05:52:34.814Z,50.19
2019-02-09T05:53:10.915Z,49.92
2019-02-09T05:53:47.034Z,49.88
2019-02-09T05:54:23.312Z,49.98
2019-02-09T05:54:59.612Z,50.25
2019-02-09T05:55:35.834Z,50.62
2019-02-09T05:56:11.893Z,51.01
2019-02-09T05:56:48.035Z,51.53
2019-02-09T05:57:26.065Z,51.60
2019-02-09T05:58:02.248Z,51.83
2019-02-09T05:58:41.077Z,52.51
2019-02-09T05:59:17.190Z,52.89
2019-02-09T05:59:53.306Z,53.30
2019-02-09T06:00:37.505Z,53.87
2019-02-09T06:01:13.617Z,53.95
2019-02-09T06:01:49.819Z,54.11
2019-02-09T06:02:25.971Z,54.21
2019-02-09T06:03:02.851Z,54.43
2019-02-09T06:03:38.956Z,54.43
2019-02-09T06:04:15.215Z,54.51
2019-02-09T06:04:51.359Z,54.51
2019-02-09T06:05:27.557Z,54.46
2019-02-09T06:06:03.735Z,54.58
2019-02-09T06:06:39.829Z,54.30
2019-02-09T06:07:15.990Z,54.34
2019-02-09T06:07:52.343Z,54.46
2019-02-09T06:08:28.514Z,54.68
2019-02-09T06:09:05.631Z,54.34
2019-02-09T06:09:41.794Z,52.66
2019-02-09T06:10:18.531Z,51.34
2019-02-09T06:10:54.722Z,50.63
2019-02-09T06:11:30.829Z,50.57
2019-02-09T06:12:07.228Z,50.62
2019-02-09T06:12:43.443Z,50.54
2019-02-09T06:13:19.577Z,50.88
2019-02-09T06:13:55.675Z,50.79
2019-02-09T06:14:31.838Z,50.97
2019-02-09T06:15:08.600Z,50.94
2019-02-09T06:15:44.902Z,51.01
2019-02-09T06:16:21.082Z,51.09
2019-02-09T06:16:57.422Z,51.04
2019-02-09T06:17:33.454Z,51.01
2019-02-09T06:18:09.745Z,51.17
2019-02-09T06:18:45.947Z,51.44
2019-02-09T06:19:22.109Z,51.70
2019-02-09T06:19:58.188Z,52.07
2019-02-09T06:20:34.434Z,52.42
2019-02-09T06:21:10.623Z,52.87
2019-02-09T06:21:46.819Z,53.00
2019-02-09T06:22:23.091Z,53.28
2019-02-09T06:22:59.387Z,53.45
2019-02-09T06:23:35.501Z,53.68
2019-02-09T06:24:11.762Z,54.63
2019-02-09T06:24:47.888Z,54.21
2019-02-09T06:25:24.185Z,54.05
2019-02-09T06:26:00.360Z,54.13
2019-02-09T06:26:36.592Z,54.22
2019-02-09T06:27:12.619Z,54.39
2019-02-09T06:27:48.689Z,54.64
2019-02-09T06:28:24.836Z,54.88
2019-02-09T06:29:00.986Z,54.95
2019-02-09T06:29:37.292Z,55.16
2019-02-09T06:30:16.379Z,55.23
2019-02-09T06:30:52.507Z,55.30
2019-02-09T06:31:28.767Z,55.34
2019-02-09T06:32:04.975Z,55.35
2019-02-09T06:32:41.270Z,55.17
2019-02-09T06:33:17.374Z,55.28
2019-02-09T06:33:53.760Z,55.16
2019-02-09T06:34:29.990Z,55.01
2019-02-09T06:35:06.831Z,54.62
2019-02-09T06:35:42.934Z,54.47
2019-02-09T06:36:19.207Z,54.48
2019-02-09T06:36:57.959Z,54.18
2019-02-09T06:37:34.170Z,54.13
2019-02-09T06:38:10.272Z,54.14
2019-02-09T06:38:46.530Z,54.16
2019-02-09T06:39:22.624Z,54.06
2019-02-09T06:39:58.713Z,54.03
2019-02-09T06:40:34.990Z,53.93
2019-02-09T06:41:11.171Z,53.78
2019-02-09T06:41:47.450Z,53.68
2019-02-09T06:42:23.637Z,53.59
2019-02-09T06:42:59.818Z,53.57
2019-02-09T06:43:35.993Z,53.62
2019-02-09T06:44:12.268Z,53.73
2019-02-09T06:44:48.599Z,53.43
2019-02-09T06:45:25.277Z,53.29
2019-02-09T06:46:01.447Z,53.38
2019-02-09T06:46:37.513Z,53.49
2019-02-09T06:47:13.767Z,53.60
2019-02-09T06:47:49.999Z,53.55
2019-02-09T06:48:28.452Z,53.51
2019-02-09T06:49:04.681Z,53.48
2019-02-09T06:49:40.857Z,53.38
2019-02-09T06:50:25.436Z,53.44
2019-02-09T06:51:03.104Z,53.59
2019-02-09T06:51:39.412Z,53.97
2019-02-09T06:52:15.638Z,54.25
2019-02-09T06:52:51.640Z,54.51
2019-02-09T06:53:27.965Z,54.72
2019-02-09T06:54:04.110Z,55.03
2019-02-09T06:54:40.445Z,55.08
2019-02-09T06:55:17.233Z,55.08
2019-02-09T06:55:53.323Z,55.16
2019-02-09T06:56:29.595Z,55.23
2019-02-09T06:57:05.614Z,55.29
2019-02-09T06:57:41.659Z,55.39
2019-02-09T06:58:17.940Z,55.50
2019-02-09T06:58:54.076Z,55.71
2019-02-09T06:59:30.265Z,56.10
2019-02-09T07:00:07.293Z,56.30
2019-02-09T07:00:43.509Z,55.96
2019-02-09T07:01:19.790Z,56.03
2019-02-09T07:01:55.930Z,56.43
2019-02-09T07:02:32.153Z,56.79
2019-02-09T07:03:08.355Z,57.09
2019-02-09T07:03:44.615Z,57.16
2019-02-09T07:04:20.789Z,57.16
2019-02-09T07:04:57.173Z,57.57
2019-02-09T07:05:33.459Z,57.93
2019-02-09T07:06:09.543Z,57.89
2019-02-09T07:06:45.722Z,58.05
2019-02-09T07:07:24.573Z,57.91
2019-02-09T07:08:00.864Z,58.03
2019-02-09T07:08:37.150Z,58.01
2019-02-09T07:09:13.296Z,58.06
2019-02-09T07:09:49.593Z,58.01
2019-02-09T07:10:26.115Z,57.63
2019-02-09T07:11:02.246Z,57.45
2019-02-09T07:11:38.435Z,57.39
2019-02-09T07:12:14.615Z,57.29
2019-02-09T07:12:50.763Z,57.36
2019-02-09T07:13:27.133Z,57.85
2019-02-09T07:14:03.349Z,57.71
2019-02-09T07:14:39.357Z,57.61
2019-02-09T07:15:17.991Z,57.49
2019-02-09T07:15:54.332Z,57.57
2019-02-09T07:16:30.627Z,57.46
2019-02-09T07:17:06.875Z,57.66
2019-02-09T07:17:42.976Z,57.22
2019-02-09T07:18:19.188Z,56.92
2019-02-09T07:18:55.368Z,56.51
2019-02-09T07:19:31.625Z,56.19
2019-02-09T07:20:08.895Z,56.05
2019-02-09T07:20:45.136Z,55.85
2019-02-09T07:21:21.196Z,55.50
2019-02-09T07:21:57.532Z,55.22
2019-02-09T07:22:33.796Z,54.98
2019-02-09T07:23:09.959Z,54.34
2019-02-09T07:23:47.207Z,54.11
2019-02-09T07:24:23.375Z,54.09
2019-02-09T07:24:59.519Z,54.88
2019-02-09T07:25:35.958Z,55.80
2019-02-09T07:26:12.180Z,56.17
2019-02-09T07:26:48.246Z,56.21
2019-02-09T07:27:24.540Z,56.19
2019-02-09T07:28:00.846Z,56.02
2019-02-09T07:28:37.045Z,54.92
2019-02-09T07:29:13.383Z,54.56
2019-02-09T07:29:49.510Z,54.18
2019-02-09T07:30:28.814Z,53.94
2019-02-09T07:31:04.997Z,53.89
2019-02-09T07:31:41.154Z,53.91
2019-02-09T07:32:17.396Z,53.90
2019-02-09T07:32:53.777Z,53.94
2019-02-09T07:33:30.100Z,54.02
2019-02-09T07:34:06.298Z,54.05
2019-02-09T07:34:45.112Z,54.17
2019-02-09T07:35:21.294Z,54.60
2019-02-09T07:35:57.488Z,54.81
2019-02-09T07:36:33.651Z,54.90
2019-02-09T07:37:09.998Z,55.09
2019-02-09T07:37:46.413Z,55.17
2019-02-09T07:38:22.585Z,55.29
2019-02-09T07:38:58.713Z,55.41
2019-02-09T07:39:34.864Z,55.42
2019-02-09T07:40:11.869Z,55.31
2019-02-09T07:40:48.226Z,54.91
2019-02-09T07:41:24.392Z,54.49
2019-02-09T07:42:00.395Z,54.49
2019-02-09T07:42:36.566Z,54.56
2019-02-09T07:43:12.872Z,54.56
2019-02-09T07:43:49.040Z,54.67
2019-02-09T07:44:25.308Z,55.04
2019-02-09T07:45:01.513Z,55.53
2019-02-09T07:45:37.720Z,55.83
2019-02-09T07:46:13.887Z,55.95
2019-02-09T07:46:50.194Z,56.19
2019-02-09T07:47:26.441Z,56.44
2019-02-09T07:48:02.739Z,56.54
2019-02-09T07:48:38.943Z,56.73